sensor_id;sensor_type;location;lat;lon;timestamp;temperature;humidity
25963;DHT22;13760;52.588;13.406;2022-10-22T00:01:23;13.80;99.90
25963;DHT22;13760;52.588;13.406;2022-10-22T00:03:52;13.80;99.90
25963;DHT22;13760;52.588;13.406;2022-10-22T00:06:26;13.70;99.90
25963;DHT22;13760;52.588;13.406;2022-10-22T00:08:51;13.70;99.90
25963;DHT22;13760;52.588;13.406;2022-10-22T00:11:18;13.70;99.90
25963;DHT22;13760;52.588;13.406;2022-10-22T00:13:45;13.70;99.90
25963;DHT22;13760;52.588;13.406;2022-10-22T00:16:11;13.70;99.90
25963;DHT22;13760;52.588;13.406;2022-10-22T00:18:37;13.70;99.90
25963;DHT22;13760;52.588;13.406;2022-10-22T00:21:04;13.70;99.90
25963;DHT22;13760;52.588;13.406;2022-10-22T00:23:30;13.70;99.90
25963;DHT22;13760;52.588;13.406;2022-10-22T00:25:55;13.70;99.90
25963;DHT22;13760;52.588;13.406;2022-10-22T00:28:21;13.70;99.90
25963;DHT22;13760;52.588;13.406;2022-10-22T00:30:47;13.70;99.90
25963;DHT22;13760;52.588;13.406;2022-10-22T00:33:20;13.70;99.90
25963;DHT22;13760;52.588;13.406;2022-10-22T00:35:46;13.70;99.90
25963;DHT22;13760;52.588;13.406;2022-10-22T00:38:12;13.60;99.90
25963;DHT22;13760;52.588;13.406;2022-10-22T00:40:39;13.60;99.90
25963;DHT22;13760;52.588;13.406;2022-10-22T00:43:05;13.60;99.90
25963;DHT22;13760;52.588;13.406;2022-10-22T00:45:31;13.60;99.90
25963;DHT22;13760;52.588;13.406;2022-10-22T00:48:06;13.60;99.90
25963;DHT22;13760;52.588;13.406;2022-10-22T00:50:53;13.60;99.90
25963;DHT22;13760;52.588;13.406;2022-10-22T00:53:50;13.60;99.90
25963;DHT22;13760;52.588;13.406;2022-10-22T00:56:18;13.60;99.90
25963;DHT22;13760;52.588;13.406;2022-10-22T00:58:57;13.50;99.90
25963;DHT22;13760;52.588;13.406;2022-10-22T01:01:40;13.50;99.90
25963;DHT22;13760;52.588;13.406;2022-10-22T01:04:06;13.50;99.90
25963;DHT22;13760;52.588;13.406;2022-10-22T01:06:32;13.50;99.90
25963;DHT22;13760;52.588;13.406;2022-10-22T01:09:11;13.50;99.90
25963;DHT22;13760;52.588;13.406;2022-10-22T01:17:06;13.40;99.90
25963;DHT22;13760;52.588;13.406;2022-10-22T01:19:51;13.40;99.90
25963;DHT22;13760;52.588;13.406;2022-10-22T01:22:33;13.40;99.90
25963;DHT22;13760;52.588;13.406;2022-10-22T01:28:35;13.40;99.90
25963;DHT22;13760;52.588;13.406;2022-10-22T01:31:05;13.30;99.90
25963;DHT22;13760;52.588;13.406;2022-10-22T01:33:32;13.30;99.90
25963;DHT22;13760;52.588;13.406;2022-10-22T01:35:58;13.40;99.90
25963;DHT22;13760;52.588;13.406;2022-10-22T01:38:25;13.40;99.90
25963;DHT22;13760;52.588;13.406;2022-10-22T01:40:51;13.40;99.90
25963;DHT22;13760;52.588;13.406;2022-10-22T01:43:17;13.40;99.90
25963;DHT22;13760;52.588;13.406;2022-10-22T01:45:46;13.40;99.90
25963;DHT22;13760;52.588;13.406;2022-10-22T01:53:59;13.40;99.90
25963;DHT22;13760;52.588;13.406;2022-10-22T01:59:31;13.30;99.90
25963;DHT22;13760;52.588;13.406;2022-10-22T02:12:09;13.30;99.90
25963;DHT22;13760;52.588;13.406;2022-10-22T02:14:41;13.20;99.90
25963;DHT22;13760;52.588;13.406;2022-10-22T02:30:42;13.30;99.90
25963;DHT22;13760;52.588;13.406;2022-10-22T02:33:22;13.30;99.90
25963;DHT22;13760;52.588;13.406;2022-10-22T02:35:57;13.30;99.90
25963;DHT22;13760;52.588;13.406;2022-10-22T02:38:27;13.40;99.90
25963;DHT22;13760;52.588;13.406;2022-10-22T02:40:57;13.30;99.90
25963;DHT22;13760;52.588;13.406;2022-10-22T02:43:37;13.30;99.90
25963;DHT22;13760;52.588;13.406;2022-10-22T02:46:06;13.30;99.90
25963;DHT22;13760;52.588;13.406;2022-10-22T02:48:44;13.30;99.90
25963;DHT22;13760;52.588;13.406;2022-10-22T02:51:15;13.30;99.90
25963;DHT22;13760;52.588;13.406;2022-10-22T02:53:40;13.30;99.90
25963;DHT22;13760;52.588;13.406;2022-10-22T02:56:09;13.20;99.90
25963;DHT22;13760;52.588;13.406;2022-10-22T02:58:56;13.30;99.90
25963;DHT22;13760;52.588;13.406;2022-10-22T03:01:23;13.20;99.90
25963;DHT22;13760;52.588;13.406;2022-10-22T03:03:52;13.20;99.90
25963;DHT22;13760;52.588;13.406;2022-10-22T03:06:20;13.20;99.90
25963;DHT22;13760;52.588;13.406;2022-10-22T03:08:50;13.20;99.90
25963;DHT22;13760;52.588;13.406;2022-10-22T03:11:49;13.20;99.90
25963;DHT22;13760;52.588;13.406;2022-10-22T03:14:16;13.20;99.90
25963;DHT22;13760;52.588;13.406;2022-10-22T03:16:43;13.20;99.90
25963;DHT22;13760;52.588;13.406;2022-10-22T03:19:09;13.20;99.90
25963;DHT22;13760;52.588;13.406;2022-10-22T03:22:25;13.20;99.90
25963;DHT22;13760;52.588;13.406;2022-10-22T03:24:53;13.20;99.90
25963;DHT22;13760;52.588;13.406;2022-10-22T03:27:20;13.20;99.90
25963;DHT22;13760;52.588;13.406;2022-10-22T03:29:47;13.10;99.90
25963;DHT22;13760;52.588;13.406;2022-10-22T03:32:18;13.10;99.90
25963;DHT22;13760;52.588;13.406;2022-10-22T03:34:46;13.10;99.90
25963;DHT22;13760;52.588;13.406;2022-10-22T03:37:24;13.10;99.90
25963;DHT22;13760;52.588;13.406;2022-10-22T03:39:55;13.00;99.90
25963;DHT22;13760;52.588;13.406;2022-10-22T03:42:23;13.00;99.90
25963;DHT22;13760;52.588;13.406;2022-10-22T03:44:49;13.00;99.90
25963;DHT22;13760;52.588;13.406;2022-10-22T03:47:19;13.00;99.90
25963;DHT22;13760;52.588;13.406;2022-10-22T03:49:55;13.00;99.90
25963;DHT22;13760;52.588;13.406;2022-10-22T03:52:26;13.00;99.90
25963;DHT22;13760;52.588;13.406;2022-10-22T03:55:09;13.00;99.90
25963;DHT22;13760;52.588;13.406;2022-10-22T03:57:47;13.00;99.90
25963;DHT22;13760;52.588;13.406;2022-10-22T04:00:18;12.90;99.90
25963;DHT22;13760;52.588;13.406;2022-10-22T04:02:45;12.90;99.90
25963;DHT22;13760;52.588;13.406;2022-10-22T04:05:11;12.90;99.90
25963;DHT22;13760;52.588;13.406;2022-10-22T04:07:38;12.90;99.90
25963;DHT22;13760;52.588;13.406;2022-10-22T04:10:05;12.90;99.90
25963;DHT22;13760;52.588;13.406;2022-10-22T04:12:32;12.90;99.90
25963;DHT22;13760;52.588;13.406;2022-10-22T04:15:24;12.90;99.90
25963;DHT22;13760;52.588;13.406;2022-10-22T04:18:30;12.90;99.90
25963;DHT22;13760;52.588;13.406;2022-10-22T04:21:16;12.90;99.90
25963;DHT22;13760;52.588;13.406;2022-10-22T04:23:51;12.90;99.90
25963;DHT22;13760;52.588;13.406;2022-10-22T04:26:23;12.90;99.90
25963;DHT22;13760;52.588;13.406;2022-10-22T04:28:50;12.90;99.90
25963;DHT22;13760;52.588;13.406;2022-10-22T04:31:18;12.90;99.90
25963;DHT22;13760;52.588;13.406;2022-10-22T04:33:44;12.80;99.90
25963;DHT22;13760;52.588;13.406;2022-10-22T04:36:13;12.90;99.90
25963;DHT22;13760;52.588;13.406;2022-10-22T04:38:39;12.80;99.90
25963;DHT22;13760;52.588;13.406;2022-10-22T04:41:16;12.90;99.90
25963;DHT22;13760;52.588;13.406;2022-10-22T04:43:42;12.80;99.90
25963;DHT22;13760;52.588;13.406;2022-10-22T04:46:09;12.90;99.90
25963;DHT22;13760;52.588;13.406;2022-10-22T04:48:36;12.80;99.90
25963;DHT22;13760;52.588;13.406;2022-10-22T04:51:03;12.90;99.90
25963;DHT22;13760;52.588;13.406;2022-10-22T04:53:29;12.90;99.90
25963;DHT22;13760;52.588;13.406;2022-10-22T04:56:05;12.80;99.90
25963;DHT22;13760;52.588;13.406;2022-10-22T04:58:31;12.90;99.90
25963;DHT22;13760;52.588;13.406;2022-10-22T05:00:57;12.90;99.90
25963;DHT22;13760;52.588;13.406;2022-10-22T05:03:24;12.80;99.90
25963;DHT22;13760;52.588;13.406;2022-10-22T05:05:49;12.80;99.90
25963;DHT22;13760;52.588;13.406;2022-10-22T05:08:15;12.80;99.90
25963;DHT22;13760;52.588;13.406;2022-10-22T05:10:41;12.80;99.90
25963;DHT22;13760;52.588;13.406;2022-10-22T05:13:06;12.80;99.90
25963;DHT22;13760;52.588;13.406;2022-10-22T05:15:32;12.80;99.90
25963;DHT22;13760;52.588;13.406;2022-10-22T05:17:59;12.80;99.90
25963;DHT22;13760;52.588;13.406;2022-10-22T05:20:24;12.80;99.90
25963;DHT22;13760;52.588;13.406;2022-10-22T05:22:50;12.80;99.90
25963;DHT22;13760;52.588;13.406;2022-10-22T05:25:16;12.80;99.90
25963;DHT22;13760;52.588;13.406;2022-10-22T05:27:41;12.70;99.90
25963;DHT22;13760;52.588;13.406;2022-10-22T05:30:07;12.70;99.90
25963;DHT22;13760;52.588;13.406;2022-10-22T05:32:34;12.70;99.90
25963;DHT22;13760;52.588;13.406;2022-10-22T05:35:00;12.70;99.90
25963;DHT22;13760;52.588;13.406;2022-10-22T05:37:25;12.70;99.90
25963;DHT22;13760;52.588;13.406;2022-10-22T05:39:51;12.70;99.90
25963;DHT22;13760;52.588;13.406;2022-10-22T05:42:17;12.70;99.90
25963;DHT22;13760;52.588;13.406;2022-10-22T05:44:43;12.60;99.90
25963;DHT22;13760;52.588;13.406;2022-10-22T05:47:08;12.60;99.90
25963;DHT22;13760;52.588;13.406;2022-10-22T05:49:34;12.60;99.90
25963;DHT22;13760;52.588;13.406;2022-10-22T05:52:00;12.60;99.90
25963;DHT22;13760;52.588;13.406;2022-10-22T05:54:25;12.60;99.90
25963;DHT22;13760;52.588;13.406;2022-10-22T05:56:51;12.60;99.90
25963;DHT22;13760;52.588;13.406;2022-10-22T05:59:17;12.60;99.90
25963;DHT22;13760;52.588;13.406;2022-10-22T06:01:42;12.60;99.90
25963;DHT22;13760;52.588;13.406;2022-10-22T06:04:10;12.60;99.90
25963;DHT22;13760;52.588;13.406;2022-10-22T06:06:43;12.60;99.90
25963;DHT22;13760;52.588;13.406;2022-10-22T06:09:19;12.50;99.90
25963;DHT22;13760;52.588;13.406;2022-10-22T06:11:47;12.50;99.90
25963;DHT22;13760;52.588;13.406;2022-10-22T06:14:14;12.50;99.90
25963;DHT22;13760;52.588;13.406;2022-10-22T06:16:40;12.50;99.90
25963;DHT22;13760;52.588;13.406;2022-10-22T06:19:10;12.50;99.90
25963;DHT22;13760;52.588;13.406;2022-10-22T06:21:36;12.50;99.90
25963;DHT22;13760;52.588;13.406;2022-10-22T06:24:02;12.50;99.90
25963;DHT22;13760;52.588;13.406;2022-10-22T06:26:28;12.50;99.90
25963;DHT22;13760;52.588;13.406;2022-10-22T06:28:55;12.50;99.90
25963;DHT22;13760;52.588;13.406;2022-10-22T06:31:21;12.50;99.90
25963;DHT22;13760;52.588;13.406;2022-10-22T06:33:47;12.50;99.90
25963;DHT22;13760;52.588;13.406;2022-10-22T06:36:15;12.60;99.90
25963;DHT22;13760;52.588;13.406;2022-10-22T06:38:41;12.60;99.90
25963;DHT22;13760;52.588;13.406;2022-10-22T06:41:12;12.60;99.90
25963;DHT22;13760;52.588;13.406;2022-10-22T06:43:38;12.60;99.90
25963;DHT22;13760;52.588;13.406;2022-10-22T06:46:06;12.70;99.90
25963;DHT22;13760;52.588;13.406;2022-10-22T06:48:33;12.70;99.90
25963;DHT22;13760;52.588;13.406;2022-10-22T06:51:01;12.70;99.90
25963;DHT22;13760;52.588;13.406;2022-10-22T06:53:28;12.80;99.90
25963;DHT22;13760;52.588;13.406;2022-10-22T06:55:53;12.80;99.90
25963;DHT22;13760;52.588;13.406;2022-10-22T06:58:19;12.90;99.90
25963;DHT22;13760;52.588;13.406;2022-10-22T07:00:44;12.90;99.90
25963;DHT22;13760;52.588;13.406;2022-10-22T07:03:14;13.00;99.90
25963;DHT22;13760;52.588;13.406;2022-10-22T07:05:40;13.00;99.90
25963;DHT22;13760;52.588;13.406;2022-10-22T07:08:06;13.00;99.90
25963;DHT22;13760;52.588;13.406;2022-10-22T07:10:32;13.10;99.90
25963;DHT22;13760;52.588;13.406;2022-10-22T07:12:58;13.10;99.90
25963;DHT22;13760;52.588;13.406;2022-10-22T07:15:24;13.10;99.90
25963;DHT22;13760;52.588;13.406;2022-10-22T07:17:53;13.20;99.90
25963;DHT22;13760;52.588;13.406;2022-10-22T07:20:19;13.20;99.90
25963;DHT22;13760;52.588;13.406;2022-10-22T07:22:46;13.30;99.90
25963;DHT22;13760;52.588;13.406;2022-10-22T07:25:11;13.30;99.90
25963;DHT22;13760;52.588;13.406;2022-10-22T07:27:37;13.30;99.90
25963;DHT22;13760;52.588;13.406;2022-10-22T07:30:03;13.40;99.90
25963;DHT22;13760;52.588;13.406;2022-10-22T07:32:29;13.40;99.90
25963;DHT22;13760;52.588;13.406;2022-10-22T07:34:54;13.40;99.90
25963;DHT22;13760;52.588;13.406;2022-10-22T07:37:20;13.50;99.90
25963;DHT22;13760;52.588;13.406;2022-10-22T07:39:47;13.50;99.90
25963;DHT22;13760;52.588;13.406;2022-10-22T07:42:13;13.50;99.90
25963;DHT22;13760;52.588;13.406;2022-10-22T07:44:39;13.60;99.90
25963;DHT22;13760;52.588;13.406;2022-10-22T07:47:05;13.70;99.90
25963;DHT22;13760;52.588;13.406;2022-10-22T07:49:31;13.70;99.90
25963;DHT22;13760;52.588;13.406;2022-10-22T07:51:56;13.70;99.90
25963;DHT22;13760;52.588;13.406;2022-10-22T07:54:23;13.80;99.90
25963;DHT22;13760;52.588;13.406;2022-10-22T07:56:58;13.90;99.90
25963;DHT22;13760;52.588;13.406;2022-10-22T07:59:27;13.90;99.90
25963;DHT22;13760;52.588;13.406;2022-10-22T08:01:53;13.90;99.90
25963;DHT22;13760;52.588;13.406;2022-10-22T08:04:19;14.00;99.90
25963;DHT22;13760;52.588;13.406;2022-10-22T08:06:45;14.00;99.90
25963;DHT22;13760;52.588;13.406;2022-10-22T08:09:14;14.00;99.90
25963;DHT22;13760;52.588;13.406;2022-10-22T08:11:49;14.00;99.90
25963;DHT22;13760;52.588;13.406;2022-10-22T08:14:15;14.00;99.90
25963;DHT22;13760;52.588;13.406;2022-10-22T08:16:40;14.10;99.90
25963;DHT22;13760;52.588;13.406;2022-10-22T08:19:06;14.10;99.90
25963;DHT22;13760;52.588;13.406;2022-10-22T08:21:32;14.10;99.90
25963;DHT22;13760;52.588;13.406;2022-10-22T08:23:57;14.10;99.90
25963;DHT22;13760;52.588;13.406;2022-10-22T08:26:23;14.10;99.90
25963;DHT22;13760;52.588;13.406;2022-10-22T08:28:48;14.10;99.90
25963;DHT22;13760;52.588;13.406;2022-10-22T08:31:14;14.10;99.90
25963;DHT22;13760;52.588;13.406;2022-10-22T08:33:40;14.10;99.90
25963;DHT22;13760;52.588;13.406;2022-10-22T08:36:07;14.10;99.90
25963;DHT22;13760;52.588;13.406;2022-10-22T08:38:33;14.20;99.90
25963;DHT22;13760;52.588;13.406;2022-10-22T08:41:19;14.20;99.90
25963;DHT22;13760;52.588;13.406;2022-10-22T08:49:35;14.20;99.90
25963;DHT22;13760;52.588;13.406;2022-10-22T08:52:01;14.20;99.90
25963;DHT22;13760;52.588;13.406;2022-10-22T08:57:22;14.30;99.90
25963;DHT22;13760;52.588;13.406;2022-10-22T09:05:40;14.40;99.90
25963;DHT22;13760;52.588;13.406;2022-10-22T09:08:11;14.40;99.90
25963;DHT22;13760;52.588;13.406;2022-10-22T09:10:42;14.40;99.90
25963;DHT22;13760;52.588;13.406;2022-10-22T09:13:17;14.40;99.90
25963;DHT22;13760;52.588;13.406;2022-10-22T09:15:47;14.50;99.90
25963;DHT22;13760;52.588;13.406;2022-10-22T09:21:37;14.50;99.90
25963;DHT22;13760;52.588;13.406;2022-10-22T09:24:26;14.50;99.90
25963;DHT22;13760;52.588;13.406;2022-10-22T09:26:52;14.50;99.90
25963;DHT22;13760;52.588;13.406;2022-10-22T09:29:22;14.60;99.90
25963;DHT22;13760;52.588;13.406;2022-10-22T09:31:49;14.60;99.90
25963;DHT22;13760;52.588;13.406;2022-10-22T09:34:19;14.60;99.90
25963;DHT22;13760;52.588;13.406;2022-10-22T09:36:58;14.60;99.90
25963;DHT22;13760;52.588;13.406;2022-10-22T09:39:49;14.70;99.90
25963;DHT22;13760;52.588;13.406;2022-10-22T09:42:17;14.70;99.90
25963;DHT22;13760;52.588;13.406;2022-10-22T09:44:44;14.80;99.90
25963;DHT22;13760;52.588;13.406;2022-10-22T09:47:38;14.80;99.90
25963;DHT22;13760;52.588;13.406;2022-10-22T09:50:27;14.90;99.90
25963;DHT22;13760;52.588;13.406;2022-10-22T09:53:13;14.90;99.90
25963;DHT22;13760;52.588;13.406;2022-10-22T09:55:42;15.00;99.90
25963;DHT22;13760;52.588;13.406;2022-10-22T09:58:11;15.10;99.90
25963;DHT22;13760;52.588;13.406;2022-10-22T10:00:45;15.10;99.90
25963;DHT22;13760;52.588;13.406;2022-10-22T10:03:19;15.20;99.90
25963;DHT22;13760;52.588;13.406;2022-10-22T10:05:47;15.20;99.90
25963;DHT22;13760;52.588;13.406;2022-10-22T10:08:16;15.20;99.90
25963;DHT22;13760;52.588;13.406;2022-10-22T10:11:13;15.20;99.90
25963;DHT22;13760;52.588;13.406;2022-10-22T10:14:00;15.20;99.90
25963;DHT22;13760;52.588;13.406;2022-10-22T10:22:47;15.20;99.90
25963;DHT22;13760;52.588;13.406;2022-10-22T10:30:18;15.30;99.90
25963;DHT22;13760;52.588;13.406;2022-10-22T10:33:14;15.30;99.90
25963;DHT22;13760;52.588;13.406;2022-10-22T10:36:00;15.40;99.90
25963;DHT22;13760;52.588;13.406;2022-10-22T10:38:59;15.40;99.90
25963;DHT22;13760;52.588;13.406;2022-10-22T10:41:43;15.50;99.90
25963;DHT22;13760;52.588;13.406;2022-10-22T10:44:33;15.50;99.90
25963;DHT22;13760;52.588;13.406;2022-10-22T10:47:42;15.60;99.90
25963;DHT22;13760;52.588;13.406;2022-10-22T10:49:59;15.60;99.90
25963;DHT22;13760;52.588;13.406;2022-10-22T10:52:37;15.60;99.90
25963;DHT22;13760;52.588;13.406;2022-10-22T10:55:21;15.60;99.90
25963;DHT22;13760;52.588;13.406;2022-10-22T10:58:16;15.50;99.90
25963;DHT22;13760;52.588;13.406;2022-10-22T11:00:56;15.60;99.90
25963;DHT22;13760;52.588;13.406;2022-10-22T11:03:56;15.70;99.90
25963;DHT22;13760;52.588;13.406;2022-10-22T11:06:29;15.80;99.90
25963;DHT22;13760;52.588;13.406;2022-10-22T11:11:44;15.80;99.90
25963;DHT22;13760;52.588;13.406;2022-10-22T11:14:53;15.90;99.90
25963;DHT22;13760;52.588;13.406;2022-10-22T11:17:25;16.00;99.90
25963;DHT22;13760;52.588;13.406;2022-10-22T11:22:54;16.10;99.90
25963;DHT22;13760;52.588;13.406;2022-10-22T11:28:18;16.30;99.90
25963;DHT22;13760;52.588;13.406;2022-10-22T11:30:50;16.40;99.90
25963;DHT22;13760;52.588;13.406;2022-10-22T11:33:21;16.60;99.90
25963;DHT22;13760;52.588;13.406;2022-10-22T11:35:49;16.70;99.90
25963;DHT22;13760;52.588;13.406;2022-10-22T11:38:23;16.60;99.90
25963;DHT22;13760;52.588;13.406;2022-10-22T11:48:42;16.90;99.90
25963;DHT22;13760;52.588;13.406;2022-10-22T11:51:37;17.10;99.90
25963;DHT22;13760;52.588;13.406;2022-10-22T11:54:28;17.30;99.90
25963;DHT22;13760;52.588;13.406;2022-10-22T11:56:58;17.50;99.90
25963;DHT22;13760;52.588;13.406;2022-10-22T11:59:58;17.50;99.90
25963;DHT22;13760;52.588;13.406;2022-10-22T12:05:31;17.70;99.90
25963;DHT22;13760;52.588;13.406;2022-10-22T12:08:16;17.70;99.90
25963;DHT22;13760;52.588;13.406;2022-10-22T12:13:28;18.10;99.90
25963;DHT22;13760;52.588;13.406;2022-10-22T12:16:01;18.30;99.90
25963;DHT22;13760;52.588;13.406;2022-10-22T12:18:39;18.40;99.90
25963;DHT22;13760;52.588;13.406;2022-10-22T12:21:13;18.60;99.90
25963;DHT22;13760;52.588;13.406;2022-10-22T12:23:38;18.70;99.90
25963;DHT22;13760;52.588;13.406;2022-10-22T12:26:04;18.80;99.90
25963;DHT22;13760;52.588;13.406;2022-10-22T12:28:38;18.90;99.90
25963;DHT22;13760;52.588;13.406;2022-10-22T12:31:05;18.90;99.90
25963;DHT22;13760;52.588;13.406;2022-10-22T12:33:31;19.00;99.90
25963;DHT22;13760;52.588;13.406;2022-10-22T12:35:57;19.10;99.90
25963;DHT22;13760;52.588;13.406;2022-10-22T12:38:28;19.20;99.90
25963;DHT22;13760;52.588;13.406;2022-10-22T12:40:57;19.20;99.90
25963;DHT22;13760;52.588;13.406;2022-10-22T12:43:29;19.20;99.90
25963;DHT22;13760;52.588;13.406;2022-10-22T12:45:55;19.20;99.90
25963;DHT22;13760;52.588;13.406;2022-10-22T12:48:26;19.40;99.90
25963;DHT22;13760;52.588;13.406;2022-10-22T12:50:54;19.40;99.90
25963;DHT22;13760;52.588;13.406;2022-10-22T12:53:30;19.50;99.90
25963;DHT22;13760;52.588;13.406;2022-10-22T12:56:01;19.60;99.90
25963;DHT22;13760;52.588;13.406;2022-10-22T12:58:31;19.40;99.90
25963;DHT22;13760;52.588;13.406;2022-10-22T13:00:59;19.40;99.90
25963;DHT22;13760;52.588;13.406;2022-10-22T13:03:35;19.50;99.90
25963;DHT22;13760;52.588;13.406;2022-10-22T13:06:34;19.60;99.90
25963;DHT22;13760;52.588;13.406;2022-10-22T13:09:18;19.80;99.90
25963;DHT22;13760;52.588;13.406;2022-10-22T13:11:50;19.70;99.90
25963;DHT22;13760;52.588;13.406;2022-10-22T13:14:25;19.80;99.90
25963;DHT22;13760;52.588;13.406;2022-10-22T13:19:48;20.00;99.90
25963;DHT22;13760;52.588;13.406;2022-10-22T13:22:41;20.00;99.90
25963;DHT22;13760;52.588;13.406;2022-10-22T13:27:45;20.00;99.90
25963;DHT22;13760;52.588;13.406;2022-10-22T13:30:21;20.00;99.90
25963;DHT22;13760;52.588;13.406;2022-10-22T13:32:58;20.10;99.90
25963;DHT22;13760;52.588;13.406;2022-10-22T13:35:30;20.20;99.90
25963;DHT22;13760;52.588;13.406;2022-10-22T13:37:57;20.20;99.90
25963;DHT22;13760;52.588;13.406;2022-10-22T13:40:23;20.10;99.90
25963;DHT22;13760;52.588;13.406;2022-10-22T13:42:49;20.10;99.90
25963;DHT22;13760;52.588;13.406;2022-10-22T13:45:14;20.10;99.90
25963;DHT22;13760;52.588;13.406;2022-10-22T13:47:41;20.20;99.90
25963;DHT22;13760;52.588;13.406;2022-10-22T13:50:16;20.20;99.90
25963;DHT22;13760;52.588;13.406;2022-10-22T13:52:45;20.10;99.90
25963;DHT22;13760;52.588;13.406;2022-10-22T13:57:50;20.00;99.90
25963;DHT22;13760;52.588;13.406;2022-10-22T14:00:18;19.90;99.90
25963;DHT22;13760;52.588;13.406;2022-10-22T14:02:46;19.80;99.90
25963;DHT22;13760;52.588;13.406;2022-10-22T14:05:14;19.70;99.90
25963;DHT22;13760;52.588;13.406;2022-10-22T14:07:40;19.70;99.90
25963;DHT22;13760;52.588;13.406;2022-10-22T14:10:16;19.60;99.90
25963;DHT22;13760;52.588;13.406;2022-10-22T14:12:42;19.60;99.90
25963;DHT22;13760;52.588;13.406;2022-10-22T14:15:13;19.40;99.90
25963;DHT22;13760;52.588;13.406;2022-10-22T14:17:40;19.30;99.90
25963;DHT22;13760;52.588;13.406;2022-10-22T14:20:16;19.20;99.90
25963;DHT22;13760;52.588;13.406;2022-10-22T14:22:44;19.10;99.90
25963;DHT22;13760;52.588;13.406;2022-10-22T14:25:24;19.00;99.90
25963;DHT22;13760;52.588;13.406;2022-10-22T14:27:50;18.90;99.90
25963;DHT22;13760;52.588;13.406;2022-10-22T14:30:18;18.90;99.90
25963;DHT22;13760;52.588;13.406;2022-10-22T14:32:44;18.80;99.90
25963;DHT22;13760;52.588;13.406;2022-10-22T14:35:14;18.70;99.90
25963;DHT22;13760;52.588;13.406;2022-10-22T14:37:40;18.70;99.90
25963;DHT22;13760;52.588;13.406;2022-10-22T14:40:07;18.60;99.90
25963;DHT22;13760;52.588;13.406;2022-10-22T14:42:36;18.60;99.90
25963;DHT22;13760;52.588;13.406;2022-10-22T14:45:05;18.50;99.90
25963;DHT22;13760;52.588;13.406;2022-10-22T14:47:30;18.50;99.90
25963;DHT22;13760;52.588;13.406;2022-10-22T14:49:56;18.40;99.90
25963;DHT22;13760;52.588;13.406;2022-10-22T14:52:21;18.40;99.90
25963;DHT22;13760;52.588;13.406;2022-10-22T14:54:47;18.40;99.90
25963;DHT22;13760;52.588;13.406;2022-10-22T14:57:13;18.30;99.90
25963;DHT22;13760;52.588;13.406;2022-10-22T14:59:40;18.30;99.90
25963;DHT22;13760;52.588;13.406;2022-10-22T15:02:09;18.30;99.90
25963;DHT22;13760;52.588;13.406;2022-10-22T15:04:36;18.20;99.90
25963;DHT22;13760;52.588;13.406;2022-10-22T15:07:01;18.20;99.90
25963;DHT22;13760;52.588;13.406;2022-10-22T15:09:26;18.20;99.90
25963;DHT22;13760;52.588;13.406;2022-10-22T15:11:53;18.10;99.90
25963;DHT22;13760;52.588;13.406;2022-10-22T15:14:26;18.00;99.90
25963;DHT22;13760;52.588;13.406;2022-10-22T15:16:58;17.90;99.90
25963;DHT22;13760;52.588;13.406;2022-10-22T15:19:33;17.90;99.90
25963;DHT22;13760;52.588;13.406;2022-10-22T15:22:11;17.80;99.90
25963;DHT22;13760;52.588;13.406;2022-10-22T15:24:43;17.80;99.90
25963;DHT22;13760;52.588;13.406;2022-10-22T15:27:10;17.70;99.90
25963;DHT22;13760;52.588;13.406;2022-10-22T15:29:38;17.60;99.90
25963;DHT22;13760;52.588;13.406;2022-10-22T15:32:04;17.60;99.90
25963;DHT22;13760;52.588;13.406;2022-10-22T15:34:32;17.60;99.90
25963;DHT22;13760;52.588;13.406;2022-10-22T15:37:00;17.50;99.90
25963;DHT22;13760;52.588;13.406;2022-10-22T15:39:26;17.40;99.90
25963;DHT22;13760;52.588;13.406;2022-10-22T15:41:53;17.40;99.90
25963;DHT22;13760;52.588;13.406;2022-10-22T15:44:21;17.30;99.90
25963;DHT22;13760;52.588;13.406;2022-10-22T15:46:47;17.20;99.90
25963;DHT22;13760;52.588;13.406;2022-10-22T15:49:13;17.20;99.90
25963;DHT22;13760;52.588;13.406;2022-10-22T15:51:42;17.00;99.90
25963;DHT22;13760;52.588;13.406;2022-10-22T15:54:14;16.90;99.90
25963;DHT22;13760;52.588;13.406;2022-10-22T15:56:40;16.80;99.90
25963;DHT22;13760;52.588;13.406;2022-10-22T15:59:13;16.70;99.90
25963;DHT22;13760;52.588;13.406;2022-10-22T16:01:39;16.60;99.90
25963;DHT22;13760;52.588;13.406;2022-10-22T16:04:05;16.50;99.90
25963;DHT22;13760;52.588;13.406;2022-10-22T16:06:34;16.30;99.90
25963;DHT22;13760;52.588;13.406;2022-10-22T16:09:03;16.20;99.90
25963;DHT22;13760;52.588;13.406;2022-10-22T16:14:51;16.10;99.90
25963;DHT22;13760;52.588;13.406;2022-10-22T16:17:17;16.00;99.90
25963;DHT22;13760;52.588;13.406;2022-10-22T16:19:43;15.90;99.90
25963;DHT22;13760;52.588;13.406;2022-10-22T16:22:09;15.80;99.90
25963;DHT22;13760;52.588;13.406;2022-10-22T16:24:36;15.70;99.90
25963;DHT22;13760;52.588;13.406;2022-10-22T16:27:06;15.60;99.90
25963;DHT22;13760;52.588;13.406;2022-10-22T16:29:32;15.50;99.90
25963;DHT22;13760;52.588;13.406;2022-10-22T16:31:57;15.40;99.90
25963;DHT22;13760;52.588;13.406;2022-10-22T16:34:25;15.40;99.90
25963;DHT22;13760;52.588;13.406;2022-10-22T16:36:51;15.30;99.90
25963;DHT22;13760;52.588;13.406;2022-10-22T16:39:18;15.20;99.90
25963;DHT22;13760;52.588;13.406;2022-10-22T16:41:43;15.10;99.90
25963;DHT22;13760;52.588;13.406;2022-10-22T16:44:11;15.10;99.90
25963;DHT22;13760;52.588;13.406;2022-10-22T16:46:37;15.00;99.90
25963;DHT22;13760;52.588;13.406;2022-10-22T16:49:04;14.90;99.90
25963;DHT22;13760;52.588;13.406;2022-10-22T16:51:29;14.90;99.90
25963;DHT22;13760;52.588;13.406;2022-10-22T16:53:56;14.80;99.90
25963;DHT22;13760;52.588;13.406;2022-10-22T16:56:22;14.80;99.90
25963;DHT22;13760;52.588;13.406;2022-10-22T16:58:51;14.70;99.90
25963;DHT22;13760;52.588;13.406;2022-10-22T17:01:18;14.70;99.90
25963;DHT22;13760;52.588;13.406;2022-10-22T17:03:44;14.60;99.90
25963;DHT22;13760;52.588;13.406;2022-10-22T17:06:10;14.60;99.90
25963;DHT22;13760;52.588;13.406;2022-10-22T17:08:37;14.50;99.90
25963;DHT22;13760;52.588;13.406;2022-10-22T17:11:15;14.50;99.90
25963;DHT22;13760;52.588;13.406;2022-10-22T17:13:43;14.40;99.90
25963;DHT22;13760;52.588;13.406;2022-10-22T17:16:11;14.40;99.90
25963;DHT22;13760;52.588;13.406;2022-10-22T17:18:39;14.40;99.90
25963;DHT22;13760;52.588;13.406;2022-10-22T17:21:06;14.40;99.90